createdAt,value
2022-09-14T00:01:24.743Z,4.53
2022-09-14T00:03:29.138Z,4.90
2022-09-14T00:05:32.268Z,4.47
2022-09-14T00:07:35.313Z,4.50
2022-09-14T00:09:38.436Z,4.77
2022-09-14T00:11:42.836Z,4.67
2022-09-14T00:13:47.165Z,4.60
2022-09-14T00:15:51.994Z,5.00
2022-09-14T00:17:54.977Z,4.80
2022-09-14T00:19:58.051Z,5.07
2022-09-14T00:22:01.497Z,4.83
2022-09-14T00:24:05.273Z,4.87
2022-09-14T00:26:10.422Z,4.60
2022-09-14T00:28:14.774Z,5.23
2022-09-14T00:30:17.915Z,5.53
2022-09-14T00:32:20.876Z,4.50
2022-09-14T00:34:23.868Z,4.60
2022-09-14T00:36:29.300Z,5.17
2022-09-14T00:38:32.257Z,4.23
2022-09-14T00:40:35.244Z,4.37
2022-09-14T00:42:38.803Z,4.10
2022-09-14T00:45:08.180Z,4.43
2022-09-14T00:47:13.797Z,4.10
2022-09-14T00:49:19.370Z,4.30
2022-09-14T00:51:23.262Z,3.97
2022-09-14T00:53:26.462Z,4.30
2022-09-14T00:55:29.605Z,4.63
2022-09-14T00:57:37.269Z,4.60
2022-09-14T00:59:42.231Z,4.67
2022-09-14T01:01:46.767Z,4.20
2022-09-14T01:03:49.859Z,5.40
2022-09-14T01:06:01.413Z,4.10
2022-09-14T01:08:32.517Z,4.50
2022-09-14T01:10:46.035Z,4.23
2022-09-14T01:13:05.997Z,4.30
2022-09-14T01:15:14.307Z,4.63
2022-09-14T01:17:23.020Z,4.50
2022-09-14T01:19:31.741Z,4.70
2022-09-14T01:21:37.085Z,4.77
2022-09-14T01:23:44.772Z,4.80
2022-09-14T01:26:05.702Z,4.60
2022-09-14T01:28:11.927Z,4.70
2022-09-14T01:30:19.106Z,4.20
2022-09-14T01:32:26.282Z,4.80
2022-09-14T01:34:32.374Z,4.23
2022-09-14T01:36:36.700Z,4.50
2022-09-14T01:38:42.008Z,4.53
2022-09-14T01:40:47.544Z,3.73
2022-09-14T01:42:52.838Z,4.50
2022-09-14T01:45:00.097Z,4.13
2022-09-14T01:47:07.582Z,4.30
2022-09-14T01:49:15.213Z,4.40
2022-09-14T01:51:22.404Z,4.40
2022-09-14T01:53:28.163Z,3.40
2022-09-14T01:55:35.243Z,6.07
2022-09-14T01:57:42.029Z,4.97
2022-09-14T01:59:46.296Z,4.97
2022-09-14T02:01:52.585Z,4.97
2022-09-14T02:03:59.028Z,5.70
2022-09-14T02:06:07.397Z,4.93
2022-09-14T02:08:10.422Z,4.40
2022-09-14T02:10:15.162Z,5.07
2022-09-14T02:12:18.425Z,5.07
2022-09-14T02:14:21.761Z,5.17
2022-09-14T02:16:25.919Z,5.33
2022-09-14T02:18:31.469Z,4.80
2022-09-14T02:20:40.859Z,4.87
2022-09-14T02:22:43.850Z,5.10
2022-09-14T02:24:47.474Z,5.27
2022-09-14T02:26:52.425Z,5.00
2022-09-14T02:28:56.062Z,5.00
2022-09-14T02:31:08.668Z,5.37
2022-09-14T02:33:17.186Z,4.90
2022-09-14T02:35:24.796Z,5.10
2022-09-14T02:37:32.690Z,5.60
2022-09-14T02:39:41.618Z,5.20
2022-09-14T02:41:50.025Z,5.97
2022-09-14T02:44:00.906Z,5.23
2022-09-14T02:46:08.681Z,5.20
2022-09-14T02:48:16.859Z,4.67
2022-09-14T02:50:24.943Z,5.37
2022-09-14T02:52:33.387Z,4.77
2022-09-14T02:54:40.616Z,5.40
2022-09-14T02:56:44.740Z,5.30
2022-09-14T02:58:47.955Z,5.70
2022-09-14T03:00:51.779Z,5.20
2022-09-14T03:02:54.912Z,5.20
2022-09-14T03:04:58.238Z,6.00
2022-09-14T03:07:02.686Z,6.67
2022-09-14T03:09:05.690Z,5.63
2022-09-14T03:11:08.785Z,5.40
2022-09-14T03:13:12.230Z,5.20
2022-09-14T03:15:15.262Z,5.40
2022-09-14T03:17:18.212Z,4.67
2022-09-14T03:19:21.782Z,4.90
2022-09-14T03:21:24.805Z,4.60
2022-09-14T03:23:29.150Z,5.00
2022-09-14T03:25:32.442Z,5.40
2022-09-14T03:27:35.419Z,5.40
2022-09-14T03:29:38.435Z,5.03
2022-09-14T03:31:41.436Z,5.07
2022-09-14T03:33:44.560Z,5.37
2022-09-14T03:35:47.529Z,6.20
2022-09-14T03:37:50.430Z,5.57
2022-09-14T03:39:54.827Z,5.33
2022-09-14T03:41:57.853Z,6.03
2022-09-14T03:44:00.866Z,5.57
2022-09-14T03:46:06.876Z,5.30
2022-09-14T03:48:11.400Z,5.30
2022-09-14T03:50:15.727Z,5.47
2022-09-14T03:52:18.903Z,5.00
2022-09-14T03:54:21.799Z,5.50
2022-09-14T03:56:26.305Z,5.40
2022-09-14T03:58:32.654Z,5.80
2022-09-14T04:00:36.204Z,5.57
2022-09-14T04:02:39.542Z,4.97
2022-09-14T04:04:42.850Z,5.40
2022-09-14T04:06:45.850Z,5.43
2022-09-14T04:08:48.935Z,5.30
2022-09-14T04:10:52.076Z,5.60
2022-09-14T04:12:56.523Z,5.73
2022-09-14T04:14:59.544Z,6.27
2022-09-14T04:17:02.810Z,5.90
2022-09-14T04:19:06.198Z,5.43
2022-09-14T04:21:11.692Z,5.90
2022-09-14T04:23:14.613Z,5.80
2022-09-14T04:25:17.572Z,5.70
2022-09-14T04:27:20.533Z,5.67
2022-09-14T04:29:24.872Z,6.37
2022-09-14T04:31:27.942Z,6.57
2022-09-14T04:33:32.623Z,6.53
2022-09-14T04:35:37.656Z,6.20
2022-09-14T04:37:40.705Z,6.37
2022-09-14T04:39:43.807Z,7.03
2022-09-14T04:41:47.153Z,6.37
2022-09-14T04:43:51.601Z,5.90
2022-09-14T04:46:03.731Z,5.50
2022-09-14T04:48:06.821Z,5.73
2022-09-14T04:50:11.382Z,5.67
2022-09-14T04:52:14.314Z,5.87
2022-09-14T04:54:18.597Z,6.00
2022-09-14T04:56:23.226Z,6.60
2022-09-14T04:58:26.200Z,6.10
2022-09-14T05:00:29.851Z,5.50
2022-09-14T05:02:34.228Z,5.50
2022-09-14T05:04:37.340Z,6.27
2022-09-14T05:06:42.157Z,5.97
2022-09-14T05:08:45.803Z,5.70
2022-09-14T05:10:48.840Z,5.93
2022-09-14T05:12:51.795Z,5.33
2022-09-14T05:14:55.308Z,5.93
2022-09-14T05:17:01.228Z,6.70
2022-09-14T05:19:07.326Z,7.40
2022-09-14T05:21:11.880Z,6.90
2022-09-14T05:23:14.807Z,6.90
2022-09-14T05:25:17.837Z,6.90
2022-09-14T05:27:20.808Z,6.40
2022-09-14T05:29:23.838Z,5.50
2022-09-14T05:31:27.642Z,6.70
2022-09-14T05:33:31.058Z,5.80
2022-09-14T05:35:35.426Z,5.70
2022-09-14T05:37:38.369Z,6.17
2022-09-14T05:39:41.390Z,6.03
2022-09-14T05:41:44.331Z,5.87
2022-09-14T05:43:47.472Z,4.83
2022-09-14T05:45:50.430Z,6.70
2022-09-14T05:47:53.390Z,5.27
2022-09-14T05:49:56.304Z,9.40
2022-09-14T05:52:00.933Z,5.50
2022-09-14T05:54:09.293Z,5.33
2022-09-14T05:56:14.001Z,5.60
2022-09-14T05:58:17.983Z,5.70
2022-09-14T06:00:21.684Z,5.47
2022-09-14T06:02:24.818Z,5.70
2022-09-14T06:04:28.033Z,5.47
2022-09-14T06:06:32.619Z,5.37
2022-09-14T06:08:37.530Z,13.30
2022-09-14T06:10:40.699Z,7.27
2022-09-14T06:12:43.686Z,5.60
2022-09-14T06:14:46.609Z,6.00
2022-09-14T06:16:49.700Z,5.77
2022-09-14T06:18:52.779Z,5.80
2022-09-14T06:20:55.736Z,6.10
2022-09-14T06:22:58.771Z,6.30
2022-09-14T06:25:03.138Z,6.03
2022-09-14T06:27:08.884Z,6.17
2022-09-14T06:29:11.974Z,6.60
2022-09-14T06:31:17.730Z,5.93
2022-09-14T06:33:21.174Z,5.23
2022-09-14T06:35:24.165Z,7.13
2022-09-14T06:37:27.187Z,6.63
2022-09-14T06:39:30.240Z,6.07
2022-09-14T06:41:34.632Z,6.43
2022-09-14T06:43:39.787Z,5.30
2022-09-14T06:45:43.178Z,5.77
2022-09-14T06:47:46.271Z,5.03
2022-09-14T06:49:50.306Z,4.83
2022-09-14T06:51:55.985Z,5.47
2022-09-14T06:54:00.608Z,5.80
2022-09-14T06:56:05.026Z,5.20
2022-09-14T06:58:09.792Z,5.20
2022-09-14T07:00:13.930Z,5.60
2022-09-14T07:02:17.134Z,4.97
2022-09-14T07:04:20.234Z,5.00
2022-09-14T07:06:24.762Z,5.00
2022-09-14T07:08:29.460Z,5.43
2022-09-14T07:10:32.443Z,4.80
2022-09-14T07:12:35.497Z,6.13
2022-09-14T07:14:39.905Z,5.33
2022-09-14T07:16:42.957Z,5.93
2022-09-14T07:18:46.016Z,5.57
2022-09-14T07:20:49.428Z,5.20
2022-09-14T07:22:52.424Z,5.70
2022-09-14T07:24:55.442Z,5.00
2022-09-14T07:26:58.480Z,5.37
2022-09-14T07:29:03.539Z,5.70
2022-09-14T07:31:16.834Z,5.83
2022-09-14T07:33:19.933Z,6.23
2022-09-14T07:35:23.188Z,6.10
2022-09-14T07:37:26.197Z,5.77
2022-09-14T07:39:29.224Z,5.70
2022-09-14T07:41:34.118Z,6.47
2022-09-14T07:43:37.234Z,6.33
2022-09-14T07:45:40.270Z,6.37
2022-09-14T07:47:44.697Z,6.87
2022-09-14T07:49:47.830Z,6.60
2022-09-14T07:51:50.923Z,6.73
2022-09-14T07:53:54.201Z,6.80
2022-09-14T07:56:01.567Z,6.63
2022-09-14T07:58:04.533Z,6.30
2022-09-14T08:00:09.852Z,6.50
2022-09-14T08:02:15.153Z,7.60
2022-09-14T08:04:19.827Z,7.90
2022-09-14T08:06:24.947Z,7.83
2022-09-14T08:08:29.749Z,7.60
2022-09-14T08:10:35.953Z,7.60
2022-09-14T08:12:38.976Z,7.77
2022-09-14T08:14:41.955Z,8.17
2022-09-14T08:16:45.074Z,8.13
2022-09-14T08:18:48.863Z,7.80
2022-09-14T08:20:53.309Z,8.40
2022-09-14T08:22:56.228Z,8.10
2022-09-14T08:24:59.610Z,8.40
2022-09-14T08:27:02.563Z,8.60
2022-09-14T08:29:06.666Z,8.30
2022-09-14T08:31:11.505Z,8.07
2022-09-14T08:33:14.561Z,8.70
2022-09-14T08:35:17.545Z,8.27
2022-09-14T08:37:22.241Z,8.70
2022-09-14T08:39:25.182Z,9.10
2022-09-14T08:41:30.443Z,8.33
2022-09-14T08:43:33.933Z,8.03
2022-09-14T08:45:36.973Z,8.83
2022-09-14T08:47:41.907Z,9.40
2022-09-14T08:49:48.487Z,8.53
2022-09-14T08:51:51.971Z,8.87
2022-09-14T08:53:57.589Z,8.57
2022-09-14T08:56:02.361Z,8.80
2022-09-14T08:58:09.341Z,8.90
2022-09-14T09:00:15.445Z,9.00
2022-09-14T09:02:35.330Z,9.43
2022-09-14T09:04:43.316Z,8.77
2022-09-14T09:06:53.597Z,8.43
2022-09-14T09:09:05.043Z,8.80
2022-09-14T09:11:11.934Z,8.17
2022-09-14T09:13:18.871Z,8.77
2022-09-14T09:15:23.812Z,9.60
2022-09-14T09:17:31.214Z,9.40
2022-09-14T09:19:36.136Z,8.53
2022-09-14T09:21:42.337Z,8.53
2022-09-14T09:23:45.824Z,7.80
2022-09-14T09:25:57.680Z,7.90
2022-09-14T09:28:03.811Z,8.33
2022-09-14T09:30:08.303Z,8.23
2022-09-14T09:32:14.960Z,8.20
2022-09-14T09:34:38.283Z,7.10
2022-09-14T09:36:50.666Z,7.43
2022-09-14T09:38:53.611Z,7.33
2022-09-14T09:41:00.697Z,7.37
2022-09-14T09:43:09.057Z,6.20
2022-09-14T09:45:12.017Z,7.37
2022-09-14T09:47:15.256Z,6.70
2022-09-14T09:49:21.903Z,6.40
2022-09-14T09:51:30.487Z,6.20
2022-09-14T09:53:35.560Z,6.77
2022-09-14T09:55:40.379Z,6.30
2022-09-14T09:57:44.888Z,5.90
2022-09-14T09:59:48.858Z,6.20
2022-09-14T10:01:54.155Z,6.00
2022-09-14T10:04:07.228Z,5.57
2022-09-14T10:06:12.532Z,6.20
2022-09-14T10:08:16.660Z,5.53
2022-09-14T10:10:22.022Z,6.30
2022-09-14T10:12:25.690Z,5.60
2022-09-14T10:14:32.430Z,6.60
2022-09-14T10:16:38.826Z,6.27
2022-09-14T10:18:48.977Z,6.40
2022-09-14T10:21:09.854Z,6.37
2022-09-14T10:23:26.381Z,6.30
2022-09-14T10:25:29.352Z,5.30
2022-09-14T10:27:39.625Z,6.97
2022-09-14T10:29:44.093Z,6.50
2022-09-14T10:31:47.857Z,5.87
2022-09-14T10:33:53.517Z,6.43
2022-09-14T10:36:02.132Z,6.13
2022-09-14T10:38:16.483Z,5.60
2022-09-14T10:40:23.042Z,6.10
2022-09-14T10:42:32.801Z,6.70
2022-09-14T10:44:47.057Z,5.67
2022-09-14T10:47:04.684Z,5.33
2022-09-14T10:49:18.751Z,5.60
2022-09-14T10:51:31.964Z,5.43
2022-09-14T10:53:45.214Z,5.50
2022-09-14T10:55:54.322Z,5.30
2022-09-14T10:58:03.050Z,5.60
2022-09-14T11:00:12.800Z,6.33
2022-09-14T11:02:41.488Z,5.77
2022-09-14T11:04:54.859Z,6.27
2022-09-14T11:07:03.992Z,7.20
2022-09-14T11:09:17.393Z,5.70
2022-09-14T11:11:30.553Z,5.90
2022-09-14T11:13:44.042Z,6.20
2022-09-14T11:15:58.007Z,5.70
2022-09-14T11:18:09.541Z,5.40
2022-09-14T11:20:22.391Z,5.27
2022-09-14T11:22:33.847Z,5.90
2022-09-14T11:24:41.058Z,5.90
2022-09-14T11:26:47.270Z,5.27
2022-09-14T11:28:53.710Z,5.40
2022-09-14T11:31:04.173Z,4.87
2022-09-14T11:33:14.535Z,5.63
2022-09-14T11:35:20.434Z,5.00
2022-09-14T11:37:28.369Z,5.47
2022-09-14T11:39:34.036Z,5.20
2022-09-14T11:41:40.799Z,5.10
2022-09-14T11:43:47.087Z,4.80
2022-09-14T11:45:53.105Z,5.27
2022-09-14T11:48:12.475Z,4.90
2022-09-14T11:50:30.085Z,4.50
2022-09-14T11:52:34.811Z,4.90
2022-09-14T11:54:46.122Z,4.27
2022-09-14T11:56:51.251Z,4.87
2022-09-14T11:58:55.925Z,4.23
2022-09-14T12:01:11.330Z,4.77
2022-09-14T12:03:18.745Z,4.30
2022-09-14T12:05:36.291Z,4.60
2022-09-14T12:08:04.745Z,4.30
2022-09-14T12:10:19.333Z,4.40
2022-09-14T12:12:46.493Z,4.10
2022-09-14T12:14:50.332Z,3.77
2022-09-14T12:17:38.364Z,3.40
2022-09-14T12:19:42.004Z,4.13
2022-09-14T12:21:45.547Z,3.93
2022-09-14T12:23:52.253Z,4.27
2022-09-14T12:26:02.223Z,3.87
2022-09-14T12:28:27.222Z,3.80
2022-09-14T12:31:08.454Z,3.80
2022-09-14T12:33:42.766Z,3.70
2022-09-14T12:35:47.848Z,3.60
2022-09-14T12:37:50.910Z,3.20
2022-09-14T12:40:37.215Z,3.70
2022-09-14T12:42:40.295Z,3.40
2022-09-14T12:44:44.127Z,3.70
2022-09-14T12:46:48.612Z,3.57
2022-09-14T12:48:58.893Z,3.70
2022-09-14T12:51:02.571Z,4.00
2022-09-14T12:53:30.407Z,4.20
2022-09-14T12:55:48.650Z,3.30
2022-09-14T12:57:56.232Z,4.07
2022-09-14T13:00:07.146Z,3.77
2022-09-14T13:02:32.833Z,3.80
2022-09-14T13:04:38.251Z,3.93
2022-09-14T13:06:44.122Z,3.70
2022-09-14T13:08:49.079Z,3.90
2022-09-14T13:10:52.740Z,3.63
2022-09-14T13:12:56.803Z,3.77
2022-09-14T13:15:02.086Z,4.97
2022-09-14T13:17:06.303Z,4.00
2022-09-14T13:19:24.466Z,4.00
2022-09-14T13:21:27.593Z,4.50
2022-09-14T13:23:33.931Z,4.80
2022-09-14T13:25:38.579Z,4.37
2022-09-14T13:27:50.856Z,4.40
2022-09-14T13:30:03.227Z,4.67
2022-09-14T13:32:07.262Z,4.93
2022-09-14T13:34:18.723Z,4.70
2022-09-14T13:36:25.314Z,3.90
2022-09-14T13:38:31.330Z,3.20
2022-09-14T13:40:34.888Z,3.40
2022-09-14T13:42:38.006Z,3.33
2022-09-14T13:44:45.263Z,3.70
2022-09-14T13:46:48.340Z,3.67
2022-09-14T13:48:52.171Z,3.83
2022-09-14T13:50:55.394Z,3.03
2022-09-14T13:53:03.115Z,3.80
2022-09-14T13:55:21.738Z,4.67
2022-09-14T13:57:25.960Z,3.40
2022-09-14T13:59:28.913Z,3.77
2022-09-14T14:01:39.913Z,3.33
2022-09-14T14:03:48.835Z,3.43
2022-09-14T14:05:52.155Z,3.77
2022-09-14T14:07:56.555Z,3.87
2022-09-14T14:10:01.976Z,3.70
2022-09-14T14:12:05.100Z,3.40
2022-09-14T14:14:13.502Z,3.70
2022-09-14T14:16:19.672Z,3.53
2022-09-14T14:18:40.305Z,3.80
2022-09-14T14:20:43.799Z,3.60
2022-09-14T14:22:56.167Z,3.13
2022-09-14T14:25:16.558Z,3.87
2022-09-14T14:27:28.268Z,3.40
2022-09-14T14:29:31.439Z,4.00
2022-09-14T14:31:34.468Z,3.57
2022-09-14T14:33:45.571Z,2.83
2022-09-14T14:35:51.760Z,2.50
2022-09-14T14:37:55.603Z,3.70
2022-09-14T14:39:58.729Z,2.80
2022-09-14T14:42:03.636Z,3.20
2022-09-14T14:44:08.208Z,3.03
2022-09-14T14:46:11.342Z,3.33
2022-09-14T14:48:14.444Z,2.90
2022-09-14T14:50:18.834Z,3.00
2022-09-14T14:52:21.865Z,3.20
2022-09-14T14:54:24.943Z,3.00
2022-09-14T14:56:28.210Z,3.00
2022-09-14T14:58:36.347Z,2.73
2022-09-14T15:00:39.635Z,3.40
2022-09-14T15:02:42.822Z,3.13
2022-09-14T15:04:45.876Z,3.10
2022-09-14T15:06:49.097Z,3.20
2022-09-14T15:08:54.036Z,3.10
2022-09-14T15:10:57.443Z,2.90
2022-09-14T15:13:00.635Z,2.80
2022-09-14T15:15:05.789Z,2.50
2022-09-14T15:17:08.735Z,2.97
2022-09-14T15:19:11.905Z,2.00
2022-09-14T15:21:15.084Z,2.43
2022-09-14T15:23:18.108Z,2.10
2022-09-14T15:25:22.337Z,2.20
2022-09-14T15:27:25.968Z,1.93
2022-09-14T15:29:29.217Z,1.83
2022-09-14T15:31:33.957Z,1.80
2022-09-14T15:33:37.026Z,2.00
2022-09-14T15:35:40.376Z,2.23
2022-09-14T15:37:43.489Z,2.03
2022-09-14T15:39:50.061Z,2.20
2022-09-14T15:41:53.499Z,2.00
2022-09-14T15:43:56.483Z,2.43
2022-09-14T15:46:05.692Z,2.10
2022-09-14T15:48:13.313Z,2.50
2022-09-14T15:50:16.639Z,2.40
2022-09-14T15:52:19.848Z,2.63
2022-09-14T15:54:24.423Z,2.40
2022-09-14T15:56:27.767Z,2.37
2022-09-14T15:58:31.361Z,1.70
2022-09-14T16:00:34.552Z,1.90
2022-09-14T16:02:37.688Z,2.80
2022-09-14T16:04:42.151Z,2.17
2022-09-14T16:06:46.132Z,2.27
2022-09-14T16:08:49.104Z,2.17
2022-09-14T16:10:58.355Z,5.40
2022-09-14T16:13:01.378Z,7.60
2022-09-14T16:15:04.599Z,5.50
2022-09-14T16:17:08.523Z,1.97
2022-09-14T16:19:13.787Z,1.60
2022-09-14T16:21:21.279Z,1.60
2022-09-14T16:23:24.252Z,2.00
2022-09-14T16:25:27.288Z,1.77
2022-09-14T16:27:30.955Z,1.73
2022-09-14T16:29:34.008Z,1.63
2022-09-14T16:31:38.490Z,1.73
2022-09-14T16:33:43.282Z,1.70
2022-09-14T16:35:46.266Z,1.63
2022-09-14T16:37:50.646Z,1.80
2022-09-14T16:39:53.987Z,2.97
2022-09-14T16:41:57.389Z,1.50
2022-09-14T16:44:05.038Z,1.57
2022-09-14T16:46:09.683Z,1.33
2022-09-14T16:48:12.948Z,1.70
2022-09-14T16:50:16.041Z,1.60
2022-09-14T16:52:19.157Z,1.70
2022-09-14T16:54:25.444Z,1.77
2022-09-14T16:56:30.913Z,1.50
2022-09-14T16:58:34.725Z,1.30
2022-09-14T17:00:41.201Z,1.53
2022-09-14T17:02:46.728Z,1.60
2022-09-14T17:04:49.831Z,2.00
2022-09-14T17:06:55.108Z,1.90
2022-09-14T17:09:00.494Z,1.70
2022-09-14T17:11:06.088Z,1.70
2022-09-14T17:13:09.108Z,1.40
2022-09-14T17:15:12.374Z,1.53
2022-09-14T17:17:15.879Z,1.57
2022-09-14T17:19:19.104Z,1.50
2022-09-14T17:21:24.665Z,1.70
2022-09-14T17:23:28.051Z,1.77
2022-09-14T17:25:31.141Z,1.53
2022-09-14T17:27:35.572Z,1.50
2022-09-14T17:29:40.727Z,1.30
2022-09-14T17:31:44.939Z,1.53
2022-09-14T17:33:48.298Z,1.63
2022-09-14T17:35:52.668Z,1.80
2022-09-14T17:37:56.093Z,1.70
2022-09-14T17:39:59.141Z,1.37
2022-09-14T17:42:02.202Z,1.90
2022-09-14T17:44:07.750Z,2.33
2022-09-14T17:46:13.369Z,4.00
2022-09-14T17:48:16.564Z,2.40
2022-09-14T17:50:21.034Z,1.90
2022-09-14T17:52:23.984Z,2.60
2022-09-14T17:54:27.432Z,2.97
2022-09-14T17:56:31.266Z,1.90
2022-09-14T17:58:34.363Z,1.80
2022-09-14T18:00:38.746Z,1.80
2022-09-14T18:02:42.049Z,2.10
2022-09-14T18:04:48.621Z,2.10
2022-09-14T18:06:51.835Z,1.53
2022-09-14T18:08:55.748Z,1.70
2022-09-14T18:11:05.162Z,1.63
2022-09-14T18:13:08.272Z,1.77
2022-09-14T18:15:15.047Z,2.37
2022-09-14T18:17:19.993Z,2.00
2022-09-14T18:19:23.236Z,1.90
2022-09-14T18:21:26.363Z,1.70
2022-09-14T18:23:29.655Z,2.10
2022-09-14T18:25:33.583Z,7.33
2022-09-14T18:27:36.671Z,3.37
2022-09-14T18:29:40.069Z,2.40
2022-09-14T18:31:43.328Z,2.00
2022-09-14T18:33:52.487Z,1.90
2022-09-14T18:35:55.806Z,1.80
2022-09-14T18:37:58.885Z,2.27
2022-09-14T18:40:02.293Z,2.03
2022-09-14T18:42:05.801Z,2.17
2022-09-14T18:44:08.845Z,2.10
2022-09-14T18:46:12.166Z,1.70
2022-09-14T18:48:15.400Z,1.97
2022-09-14T18:50:20.482Z,2.10
2022-09-14T18:52:23.569Z,1.90
2022-09-14T18:54:27.694Z,1.90
2022-09-14T18:56:33.126Z,1.77
2022-09-14T18:58:37.809Z,2.00
2022-09-14T19:00:45.872Z,1.80
2022-09-14T19:02:52.705Z,2.20
2022-09-14T19:04:56.470Z,1.90
2022-09-14T19:07:01.156Z,2.10
2022-09-14T19:09:04.404Z,1.57
2022-09-14T19:11:08.288Z,1.80
2022-09-14T19:13:11.585Z,2.40
2022-09-14T19:15:14.960Z,2.10
2022-09-14T19:17:18.010Z,1.90
2022-09-14T19:19:21.262Z,2.13
2022-09-14T19:21:26.153Z,2.10
2022-09-14T19:23:30.960Z,2.13
2022-09-14T19:25:37.756Z,1.97
2022-09-14T19:27:40.899Z,1.80
2022-09-14T19:29:44.005Z,2.07
2022-09-14T19:31:50.968Z,2.63
2022-09-14T19:33:55.088Z,2.10
2022-09-14T19:36:03.436Z,2.10
2022-09-14T19:38:06.500Z,1.90
2022-09-14T19:40:11.632Z,1.90
2022-09-14T19:42:14.815Z,2.00
2022-09-14T19:44:18.408Z,1.50
2022-09-14T19:46:23.285Z,1.90
2022-09-14T19:48:26.499Z,2.30
2022-09-14T19:50:29.747Z,2.33
2022-09-14T19:52:32.822Z,2.40
2022-09-14T19:54:36.036Z,2.30
2022-09-14T19:56:40.441Z,2.67
2022-09-14T19:58:46.841Z,2.50
2022-09-14T20:00:53.988Z,2.50
2022-09-14T20:02:57.057Z,2.33
2022-09-14T20:05:00.213Z,2.83
2022-09-14T20:07:03.379Z,2.87
2022-09-14T20:09:08.250Z,3.03
2022-09-14T20:11:17.654Z,2.53
2022-09-14T20:13:24.312Z,2.70
2022-09-14T20:15:29.748Z,2.80
2022-09-14T20:17:32.819Z,3.50
2022-09-14T20:19:36.460Z,3.13
2022-09-14T20:21:41.281Z,3.17
2022-09-14T20:24:04.488Z,3.60
2022-09-14T20:26:09.938Z,2.90
2022-09-14T20:28:13.005Z,3.50
2022-09-14T20:30:17.637Z,3.43
2022-09-14T20:32:20.678Z,3.60
2022-09-14T20:34:23.937Z,3.40
2022-09-14T20:36:28.566Z,2.90
2022-09-14T20:38:31.631Z,25.40
2022-09-14T20:40:34.780Z,18.40
2022-09-14T20:42:37.873Z,6.27
2022-09-14T20:44:40.945Z,4.60
2022-09-14T20:46:47.006Z,3.57
2022-09-14T20:48:50.893Z,3.70
2022-09-14T20:50:54.139Z,3.27
2022-09-14T20:52:57.303Z,4.00
2022-09-14T20:55:00.458Z,3.40
2022-09-14T20:57:04.598Z,3.20
2022-09-14T20:59:09.590Z,3.27
2022-09-14T21:01:14.072Z,3.40
2022-09-14T21:03:18.541Z,3.03
2022-09-14T21:05:21.582Z,3.67
2022-09-14T21:07:25.661Z,3.17
2022-09-14T21:09:29.175Z,3.20
2022-09-14T21:11:32.525Z,3.30
2022-09-14T21:13:36.149Z,3.63
2022-09-14T21:15:39.309Z,3.90
2022-09-14T21:17:42.508Z,3.30
2022-09-14T21:19:46.980Z,3.43
2022-09-14T21:21:50.693Z,3.00
2022-09-14T21:23:55.773Z,3.43
2022-09-14T21:25:58.768Z,3.60
2022-09-14T21:28:02.004Z,4.10
2022-09-14T21:30:05.896Z,3.23
2022-09-14T21:32:09.292Z,3.50
2022-09-14T21:34:13.319Z,3.53
2022-09-14T21:36:19.294Z,3.40
2022-09-14T21:38:22.315Z,3.77
2022-09-14T21:40:25.448Z,3.17
2022-09-14T21:42:30.229Z,3.53
2022-09-14T21:44:34.998Z,3.40
2022-09-14T21:46:38.501Z,3.70
2022-09-14T21:48:41.735Z,3.20
2022-09-14T21:50:47.363Z,3.13
2022-09-14T21:52:51.939Z,3.40
2022-09-14T21:54:54.949Z,3.00
2022-09-14T21:56:57.943Z,3.50
2022-09-14T21:59:02.764Z,4.10
2022-09-14T22:01:06.169Z,3.63
2022-09-14T22:03:09.305Z,3.60
2022-09-14T22:05:12.691Z,3.27
2022-09-14T22:07:15.765Z,3.40
2022-09-14T22:09:28.256Z,3.30
2022-09-14T22:11:32.659Z,3.67
2022-09-14T22:13:35.775Z,3.60
2022-09-14T22:15:38.824Z,3.33
2022-09-14T22:17:42.065Z,3.53
2022-09-14T22:19:45.134Z,4.30
2022-09-14T22:21:48.954Z,3.53
2022-09-14T22:23:53.121Z,2.80
2022-09-14T22:25:58.249Z,2.97
2022-09-14T22:28:01.324Z,3.63
2022-09-14T22:30:04.597Z,3.10
2022-09-14T22:32:12.072Z,3.10
2022-09-14T22:34:15.307Z,3.30
2022-09-14T22:36:18.448Z,2.57
2022-09-14T22:38:22.223Z,3.93
2022-09-14T22:40:25.284Z,3.20
2022-09-14T22:42:31.437Z,3.60
2022-09-14T22:44:34.421Z,3.40
2022-09-14T22:46:37.452Z,2.70
2022-09-14T22:48:40.557Z,2.77
2022-09-14T22:50:43.818Z,3.07
2022-09-14T22:52:46.812Z,3.27
2022-09-14T22:54:49.808Z,3.13
2022-09-14T22:56:52.824Z,3.00
2022-09-14T22:58:57.482Z,3.10
2022-09-14T23:01:06.379Z,3.40
2022-09-14T23:03:10.239Z,4.20
2022-09-14T23:05:13.252Z,3.33
2022-09-14T23:07:16.239Z,3.80
2022-09-14T23:09:22.354Z,3.57
2022-09-14T23:11:25.870Z,2.90
2022-09-14T23:13:28.797Z,3.43
2022-09-14T23:15:33.190Z,3.50
2022-09-14T23:17:36.186Z,3.40
2022-09-14T23:19:39.373Z,3.40
2022-09-14T23:21:42.418Z,3.60
2022-09-14T23:23:45.538Z,2.90
2022-09-14T23:25:48.973Z,3.30
2022-09-14T23:27:52.032Z,3.83
2022-09-14T23:29:54.982Z,3.47
2022-09-14T23:31:59.344Z,3.83
2022-09-14T23:34:04.061Z,4.10
2022-09-14T23:36:07.413Z,3.90
2022-09-14T23:38:10.434Z,3.63
2022-09-14T23:40:13.965Z,3.23
2022-09-14T23:42:16.993Z,3.67
2022-09-14T23:44:20.069Z,4.13
2022-09-14T23:46:23.436Z,3.50
2022-09-14T23:48:28.164Z,3.40
2022-09-14T23:50:31.629Z,3.70
2022-09-14T23:52:34.724Z,3.90
2022-09-14T23:54:37.650Z,3.40
2022-09-14T23:56:41.041Z,4.20
2022-09-14T23:58:44.428Z,4.17
